sensor_id;sensor_type;location;lat;lon;timestamp;P1;durP1;ratioP1;P2;durP2;ratioP2
26486;SDS011;14425;56.136;40.360;2023-10-19T00:01:20;1.08;;;0.82;;
26486;SDS011;14425;56.136;40.360;2023-10-19T00:03:53;0.70;;;0.60;;
26486;SDS011;14425;56.136;40.360;2023-10-19T00:06:22;1.13;;;0.75;;
26486;SDS011;14425;56.136;40.360;2023-10-19T00:08:48;0.93;;;0.82;;
26486;SDS011;14425;56.136;40.360;2023-10-19T00:11:17;1.02;;;0.90;;
26486;SDS011;14425;56.136;40.360;2023-10-19T00:13:51;1.73;;;0.70;;
26486;SDS011;14425;56.136;40.360;2023-10-19T00:16:19;3.42;;;0.80;;
26486;SDS011;14425;56.136;40.360;2023-10-19T00:18:51;1.45;;;0.70;;
26486;SDS011;14425;56.136;40.360;2023-10-19T00:21:17;2.88;;;0.98;;
26486;SDS011;14425;56.136;40.360;2023-10-19T00:23:50;1.23;;;0.88;;
26486;SDS011;14425;56.136;40.360;2023-10-19T00:26:22;1.83;;;1.00;;
26486;SDS011;14425;56.136;40.360;2023-10-19T00:28:50;0.88;;;0.82;;
26486;SDS011;14425;56.136;40.360;2023-10-19T00:31:24;1.73;;;1.30;;
26486;SDS011;14425;56.136;40.360;2023-10-19T00:33:53;1.42;;;0.85;;
26486;SDS011;14425;56.136;40.360;2023-10-19T00:36:22;3.85;;;1.40;;
26486;SDS011;14425;56.136;40.360;2023-10-19T00:38:49;0.98;;;0.88;;
26486;SDS011;14425;56.136;40.360;2023-10-19T00:41:20;1.58;;;1.42;;
26486;SDS011;14425;56.136;40.360;2023-10-19T00:43:49;3.25;;;1.23;;
26486;SDS011;14425;56.136;40.360;2023-10-19T00:46:20;1.65;;;1.25;;
26486;SDS011;14425;56.136;40.360;2023-10-19T00:48:55;1.35;;;1.05;;
26486;SDS011;14425;56.136;40.360;2023-10-19T00:51:24;2.35;;;2.05;;
26486;SDS011;14425;56.136;40.360;2023-10-19T00:53:55;3.97;;;1.17;;
26486;SDS011;14425;56.136;40.360;2023-10-19T00:56:22;2.40;;;1.20;;
26486;SDS011;14425;56.136;40.360;2023-10-19T00:58:51;2.53;;;1.35;;
26486;SDS011;14425;56.136;40.360;2023-10-19T01:01:25;1.30;;;1.20;;
26486;SDS011;14425;56.136;40.360;2023-10-19T01:03:54;2.55;;;1.40;;
26486;SDS011;14425;56.136;40.360;2023-10-19T01:06:23;2.58;;;1.45;;
26486;SDS011;14425;56.136;40.360;2023-10-19T01:08:50;2.63;;;1.00;;
26486;SDS011;14425;56.136;40.360;2023-10-19T01:11:17;1.70;;;0.98;;
26486;SDS011;14425;56.136;40.360;2023-10-19T01:13:49;1.27;;;1.17;;
26486;SDS011;14425;56.136;40.360;2023-10-19T01:16:17;0.88;;;0.85;;
26486;SDS011;14425;56.136;40.360;2023-10-19T01:18:47;2.35;;;1.30;;
26486;SDS011;14425;56.136;40.360;2023-10-19T01:21:13;2.10;;;1.20;;
26486;SDS011;14425;56.136;40.360;2023-10-19T01:23:43;1.45;;;1.20;;
26486;SDS011;14425;56.136;40.360;2023-10-19T01:26:10;2.55;;;1.35;;
26486;SDS011;14425;56.136;40.360;2023-10-19T01:28:36;2.83;;;1.35;;
26486;SDS011;14425;56.136;40.360;2023-10-19T01:31:06;1.30;;;1.13;;
26486;SDS011;14425;56.136;40.360;2023-10-19T01:33:59;2.05;;;1.23;;
26486;SDS011;14425;56.136;40.360;2023-10-19T01:36:31;1.63;;;1.20;;
26486;SDS011;14425;56.136;40.360;2023-10-19T01:39:07;2.10;;;1.20;;
26486;SDS011;14425;56.136;40.360;2023-10-19T01:41:36;3.35;;;1.45;;
26486;SDS011;14425;56.136;40.360;2023-10-19T01:44:02;3.58;;;1.52;;
26486;SDS011;14425;56.136;40.360;2023-10-19T01:46:38;1.95;;;1.35;;
26486;SDS011;14425;56.136;40.360;2023-10-19T01:49:04;2.15;;;1.40;;
26486;SDS011;14425;56.136;40.360;2023-10-19T01:51:31;2.30;;;1.65;;
26486;SDS011;14425;56.136;40.360;2023-10-19T01:53:59;1.92;;;1.67;;
26486;SDS011;14425;56.136;40.360;2023-10-19T01:56:28;4.63;;;2.58;;
26486;SDS011;14425;56.136;40.360;2023-10-19T01:58:54;2.90;;;2.20;;
26486;SDS011;14425;56.136;40.360;2023-10-19T02:01:20;4.32;;;2.20;;
26486;SDS011;14425;56.136;40.360;2023-10-19T02:03:55;3.00;;;1.80;;
26486;SDS011;14425;56.136;40.360;2023-10-19T02:06:24;2.13;;;1.65;;
26486;SDS011;14425;56.136;40.360;2023-10-19T02:09:07;2.20;;;1.73;;
26486;SDS011;14425;56.136;40.360;2023-10-19T02:11:42;2.10;;;1.90;;
26486;SDS011;14425;56.136;40.360;2023-10-19T02:14:09;3.85;;;2.40;;
26486;SDS011;14425;56.136;40.360;2023-10-19T02:16:41;8.18;;;3.53;;
26486;SDS011;14425;56.136;40.360;2023-10-19T02:19:09;5.95;;;3.58;;
26486;SDS011;14425;56.136;40.360;2023-10-19T02:21:35;2.33;;;1.95;;
26486;SDS011;14425;56.136;40.360;2023-10-19T02:24:09;6.97;;;3.35;;
26486;SDS011;14425;56.136;40.360;2023-10-19T02:26:39;6.75;;;3.53;;
26486;SDS011;14425;56.136;40.360;2023-10-19T02:29:06;4.20;;;3.35;;
26486;SDS011;14425;56.136;40.360;2023-10-19T02:31:36;4.78;;;3.40;;
26486;SDS011;14425;56.136;40.360;2023-10-19T02:34:08;8.30;;;3.35;;
26486;SDS011;14425;56.136;40.360;2023-10-19T02:36:41;4.50;;;3.17;;
26486;SDS011;14425;56.136;40.360;2023-10-19T02:39:08;3.90;;;2.55;;
26486;SDS011;14425;56.136;40.360;2023-10-19T02:41:36;5.05;;;3.40;;
26486;SDS011;14425;56.136;40.360;2023-10-19T02:44:12;6.70;;;3.97;;
26486;SDS011;14425;56.136;40.360;2023-10-19T02:46:44;3.58;;;2.47;;
26486;SDS011;14425;56.136;40.360;2023-10-19T02:49:11;5.50;;;3.30;;
26486;SDS011;14425;56.136;40.360;2023-10-19T02:51:39;5.05;;;3.58;;
26486;SDS011;14425;56.136;40.360;2023-10-19T02:54:06;14.57;;;3.88;;
26486;SDS011;14425;56.136;40.360;2023-10-19T02:56:33;7.75;;;3.83;;
26486;SDS011;14425;56.136;40.360;2023-10-19T02:59:05;6.63;;;3.72;;
26486;SDS011;14425;56.136;40.360;2023-10-19T03:01:30;9.63;;;4.43;;
26486;SDS011;14425;56.136;40.360;2023-10-19T03:04:00;7.05;;;3.83;;
26486;SDS011;14425;56.136;40.360;2023-10-19T03:06:27;6.38;;;4.40;;
26486;SDS011;14425;56.136;40.360;2023-10-19T03:08:59;6.13;;;3.63;;
26486;SDS011;14425;56.136;40.360;2023-10-19T03:11:42;6.15;;;4.50;;
26486;SDS011;14425;56.136;40.360;2023-10-19T03:14:09;5.50;;;4.60;;
26486;SDS011;14425;56.136;40.360;2023-10-19T03:16:37;5.57;;;4.43;;
26486;SDS011;14425;56.136;40.360;2023-10-19T03:19:03;8.32;;;4.78;;
26486;SDS011;14425;56.136;40.360;2023-10-19T03:21:32;5.95;;;4.05;;
26486;SDS011;14425;56.136;40.360;2023-10-19T03:24:07;7.97;;;4.15;;
26486;SDS011;14425;56.136;40.360;2023-10-19T03:26:37;8.85;;;4.75;;
26486;SDS011;14425;56.136;40.360;2023-10-19T03:29:05;8.48;;;5.28;;
26486;SDS011;14425;56.136;40.360;2023-10-19T03:31:37;9.65;;;3.92;;
26486;SDS011;14425;56.136;40.360;2023-10-19T03:34:12;9.10;;;4.15;;
26486;SDS011;14425;56.136;40.360;2023-10-19T03:36:38;8.73;;;4.75;;
26486;SDS011;14425;56.136;40.360;2023-10-19T03:39:04;7.97;;;4.60;;
26486;SDS011;14425;56.136;40.360;2023-10-19T03:41:36;7.78;;;4.25;;
26486;SDS011;14425;56.136;40.360;2023-10-19T03:44:04;9.20;;;5.25;;
26486;SDS011;14425;56.136;40.360;2023-10-19T03:46:32;7.88;;;4.88;;
26486;SDS011;14425;56.136;40.360;2023-10-19T03:49:03;7.60;;;5.18;;
26486;SDS011;14425;56.136;40.360;2023-10-19T03:51:36;6.63;;;4.53;;
26486;SDS011;14425;56.136;40.360;2023-10-19T03:54:05;7.55;;;4.50;;
26486;SDS011;14425;56.136;40.360;2023-10-19T03:56:50;6.53;;;4.72;;
26486;SDS011;14425;56.136;40.360;2023-10-19T03:59:17;11.27;;;4.97;;
26486;SDS011;14425;56.136;40.360;2023-10-19T04:01:43;11.07;;;4.93;;
26486;SDS011;14425;56.136;40.360;2023-10-19T04:04:09;9.50;;;5.22;;
26486;SDS011;14425;56.136;40.360;2023-10-19T04:06:36;7.63;;;4.70;;
26486;SDS011;14425;56.136;40.360;2023-10-19T04:09:02;8.20;;;4.05;;
26486;SDS011;14425;56.136;40.360;2023-10-19T04:11:32;9.48;;;4.70;;
26486;SDS011;14425;56.136;40.360;2023-10-19T04:13:58;9.02;;;4.57;;
26486;SDS011;14425;56.136;40.360;2023-10-19T04:16:29;4.22;;;3.70;;
26486;SDS011;14425;56.136;40.360;2023-10-19T04:18:56;8.55;;;4.68;;
26486;SDS011;14425;56.136;40.360;2023-10-19T04:21:23;7.80;;;5.00;;
26486;SDS011;14425;56.136;40.360;2023-10-19T04:23:48;9.02;;;5.53;;
26486;SDS011;14425;56.136;40.360;2023-10-19T04:26:14;8.90;;;5.93;;
26486;SDS011;14425;56.136;40.360;2023-10-19T04:28:43;7.65;;;4.50;;
26486;SDS011;14425;56.136;40.360;2023-10-19T04:31:15;6.18;;;4.28;;
26486;SDS011;14425;56.136;40.360;2023-10-19T04:33:42;11.55;;;5.85;;
26486;SDS011;14425;56.136;40.360;2023-10-19T04:36:12;8.77;;;5.65;;
26486;SDS011;14425;56.136;40.360;2023-10-19T04:38:39;9.23;;;5.35;;
26486;SDS011;14425;56.136;40.360;2023-10-19T04:41:08;7.82;;;5.97;;
26486;SDS011;14425;56.136;40.360;2023-10-19T04:43:35;9.38;;;5.85;;
26486;SDS011;14425;56.136;40.360;2023-10-19T04:46:07;9.13;;;6.32;;
26486;SDS011;14425;56.136;40.360;2023-10-19T04:48:36;17.42;;;10.70;;
26486;SDS011;14425;56.136;40.360;2023-10-19T04:51:05;10.73;;;7.72;;
26486;SDS011;14425;56.136;40.360;2023-10-19T04:53:32;13.02;;;9.10;;
26486;SDS011;14425;56.136;40.360;2023-10-19T04:55:57;16.30;;;10.55;;
26486;SDS011;14425;56.136;40.360;2023-10-19T04:58:26;10.25;;;6.53;;
26486;SDS011;14425;56.136;40.360;2023-10-19T05:00:53;13.05;;;9.88;;
26486;SDS011;14425;56.136;40.360;2023-10-19T05:03:19;17.38;;;10.73;;
26486;SDS011;14425;56.136;40.360;2023-10-19T05:05:44;17.88;;;8.05;;
26486;SDS011;14425;56.136;40.360;2023-10-19T05:08:11;18.17;;;10.27;;
26486;SDS011;14425;56.136;40.360;2023-10-19T05:10:36;20.42;;;9.15;;
26486;SDS011;14425;56.136;40.360;2023-10-19T05:13:02;25.42;;;8.63;;
26486;SDS011;14425;56.136;40.360;2023-10-19T05:15:28;16.33;;;8.23;;
26486;SDS011;14425;56.136;40.360;2023-10-19T05:17:54;13.70;;;7.53;;
26486;SDS011;14425;56.136;40.360;2023-10-19T05:20:20;13.30;;;7.00;;
26486;SDS011;14425;56.136;40.360;2023-10-19T05:22:46;12.27;;;6.90;;
26486;SDS011;14425;56.136;40.360;2023-10-19T05:25:12;16.75;;;7.63;;
26486;SDS011;14425;56.136;40.360;2023-10-19T05:27:38;15.73;;;6.50;;
26486;SDS011;14425;56.136;40.360;2023-10-19T05:30:04;14.48;;;6.80;;
26486;SDS011;14425;56.136;40.360;2023-10-19T05:32:32;11.68;;;7.75;;
26486;SDS011;14425;56.136;40.360;2023-10-19T05:34:58;18.52;;;7.63;;
26486;SDS011;14425;56.136;40.360;2023-10-19T05:37:23;11.35;;;8.00;;
26486;SDS011;14425;56.136;40.360;2023-10-19T05:39:50;10.40;;;7.20;;
26486;SDS011;14425;56.136;40.360;2023-10-19T05:42:17;13.27;;;6.85;;
26486;SDS011;14425;56.136;40.360;2023-10-19T05:44:43;11.65;;;7.65;;
26486;SDS011;14425;56.136;40.360;2023-10-19T05:47:08;11.55;;;7.18;;
26486;SDS011;14425;56.136;40.360;2023-10-19T05:49:34;13.30;;;5.63;;
26486;SDS011;14425;56.136;40.360;2023-10-19T05:51:59;8.75;;;5.93;;
26486;SDS011;14425;56.136;40.360;2023-10-19T05:54:25;7.65;;;6.50;;
26486;SDS011;14425;56.136;40.360;2023-10-19T05:56:52;10.13;;;6.53;;
26486;SDS011;14425;56.136;40.360;2023-10-19T05:59:17;11.10;;;5.13;;
26486;SDS011;14425;56.136;40.360;2023-10-19T06:01:43;11.35;;;5.53;;
26486;SDS011;14425;56.136;40.360;2023-10-19T06:04:12;11.20;;;5.90;;
26486;SDS011;14425;56.136;40.360;2023-10-19T06:06:38;9.98;;;6.82;;
26486;SDS011;14425;56.136;40.360;2023-10-19T06:09:05;9.98;;;6.50;;
26486;SDS011;14425;56.136;40.360;2023-10-19T06:11:33;8.05;;;5.22;;
26486;SDS011;14425;56.136;40.360;2023-10-19T06:14:02;6.03;;;4.75;;
26486;SDS011;14425;56.136;40.360;2023-10-19T06:16:35;7.57;;;4.75;;
26486;SDS011;14425;56.136;40.360;2023-10-19T06:19:01;8.30;;;5.05;;
26486;SDS011;14425;56.136;40.360;2023-10-19T06:21:27;6.53;;;5.00;;
26486;SDS011;14425;56.136;40.360;2023-10-19T06:23:52;8.38;;;5.28;;
26486;SDS011;14425;56.136;40.360;2023-10-19T06:26:19;6.22;;;4.07;;
26486;SDS011;14425;56.136;40.360;2023-10-19T06:28:45;7.03;;;4.53;;
26486;SDS011;14425;56.136;40.360;2023-10-19T06:31:10;6.43;;;4.30;;
26486;SDS011;14425;56.136;40.360;2023-10-19T06:33:36;7.32;;;4.07;;
26486;SDS011;14425;56.136;40.360;2023-10-19T06:36:06;4.68;;;3.90;;
26486;SDS011;14425;56.136;40.360;2023-10-19T06:38:32;5.63;;;4.15;;
26486;SDS011;14425;56.136;40.360;2023-10-19T06:40:57;4.80;;;3.45;;
26486;SDS011;14425;56.136;40.360;2023-10-19T06:43:24;5.57;;;4.68;;
26486;SDS011;14425;56.136;40.360;2023-10-19T06:45:53;5.85;;;4.25;;
26486;SDS011;14425;56.136;40.360;2023-10-19T06:48:29;9.50;;;4.40;;
26486;SDS011;14425;56.136;40.360;2023-10-19T06:50:56;8.13;;;3.78;;
26486;SDS011;14425;56.136;40.360;2023-10-19T06:53:21;5.15;;;4.07;;
26486;SDS011;14425;56.136;40.360;2023-10-19T06:55:47;5.30;;;4.18;;
26486;SDS011;14425;56.136;40.360;2023-10-19T06:58:13;6.95;;;4.30;;
26486;SDS011;14425;56.136;40.360;2023-10-19T07:00:45;6.22;;;5.03;;
26486;SDS011;14425;56.136;40.360;2023-10-19T07:03:21;6.53;;;4.35;;
26486;SDS011;14425;56.136;40.360;2023-10-19T07:05:48;3.83;;;3.38;;
26486;SDS011;14425;56.136;40.360;2023-10-19T07:08:15;5.45;;;4.00;;
26486;SDS011;14425;56.136;40.360;2023-10-19T07:10:40;6.47;;;4.45;;
26486;SDS011;14425;56.136;40.360;2023-10-19T07:13:08;5.70;;;4.65;;
26486;SDS011;14425;56.136;40.360;2023-10-19T07:15:34;4.07;;;3.28;;
26486;SDS011;14425;56.136;40.360;2023-10-19T07:17:59;4.32;;;3.25;;
26486;SDS011;14425;56.136;40.360;2023-10-19T07:20:25;6.45;;;4.50;;
26486;SDS011;14425;56.136;40.360;2023-10-19T07:22:58;6.55;;;4.65;;
26486;SDS011;14425;56.136;40.360;2023-10-19T07:27:54;7.10;;;5.35;;
26486;SDS011;14425;56.136;40.360;2023-10-19T07:30:21;7.20;;;5.68;;
26486;SDS011;14425;56.136;40.360;2023-10-19T07:32:51;7.57;;;4.83;;
26486;SDS011;14425;56.136;40.360;2023-10-19T07:35:24;5.82;;;4.18;;
26486;SDS011;14425;56.136;40.360;2023-10-19T07:37:51;7.38;;;4.43;;
26486;SDS011;14425;56.136;40.360;2023-10-19T07:40:18;8.73;;;5.13;;
26486;SDS011;14425;56.136;40.360;2023-10-19T07:42:45;12.05;;;5.43;;
26486;SDS011;14425;56.136;40.360;2023-10-19T07:45:12;10.02;;;4.85;;
26486;SDS011;14425;56.136;40.360;2023-10-19T07:47:41;7.85;;;4.55;;
26486;SDS011;14425;56.136;40.360;2023-10-19T07:50:08;8.25;;;5.25;;
26486;SDS011;14425;56.136;40.360;2023-10-19T07:52:43;9.02;;;5.85;;
26486;SDS011;14425;56.136;40.360;2023-10-19T07:55:12;14.18;;;5.05;;
26486;SDS011;14425;56.136;40.360;2023-10-19T07:57:39;9.32;;;4.82;;
26486;SDS011;14425;56.136;40.360;2023-10-19T08:00:10;7.43;;;4.90;;
26486;SDS011;14425;56.136;40.360;2023-10-19T08:02:40;6.88;;;4.95;;
26486;SDS011;14425;56.136;40.360;2023-10-19T08:05:07;7.57;;;4.95;;
26486;SDS011;14425;56.136;40.360;2023-10-19T08:07:34;7.68;;;5.22;;
26486;SDS011;14425;56.136;40.360;2023-10-19T08:10:02;7.38;;;4.90;;
26486;SDS011;14425;56.136;40.360;2023-10-19T08:12:31;4.90;;;4.45;;
26486;SDS011;14425;56.136;40.360;2023-10-19T08:14:58;6.78;;;4.25;;
26486;SDS011;14425;56.136;40.360;2023-10-19T08:17:25;4.95;;;4.13;;
26486;SDS011;14425;56.136;40.360;2023-10-19T08:19:50;4.30;;;3.80;;
26486;SDS011;14425;56.136;40.360;2023-10-19T08:22:16;5.47;;;4.45;;
26486;SDS011;14425;56.136;40.360;2023-10-19T08:24:42;6.15;;;4.88;;
26486;SDS011;14425;56.136;40.360;2023-10-19T08:27:15;5.03;;;4.10;;
26486;SDS011;14425;56.136;40.360;2023-10-19T08:29:42;9.10;;;5.43;;
26486;SDS011;14425;56.136;40.360;2023-10-19T08:32:08;8.85;;;5.07;;
26486;SDS011;14425;56.136;40.360;2023-10-19T08:34:35;6.72;;;4.95;;
26486;SDS011;14425;56.136;40.360;2023-10-19T08:37:02;5.00;;;4.32;;
26486;SDS011;14425;56.136;40.360;2023-10-19T08:39:29;6.60;;;4.82;;
26486;SDS011;14425;56.136;40.360;2023-10-19T08:42:05;6.05;;;4.57;;
26486;SDS011;14425;56.136;40.360;2023-10-19T08:44:32;7.18;;;5.55;;
26486;SDS011;14425;56.136;40.360;2023-10-19T08:46:58;4.90;;;4.32;;
26486;SDS011;14425;56.136;40.360;2023-10-19T08:49:27;6.22;;;5.57;;
26486;SDS011;14425;56.136;40.360;2023-10-19T08:51:53;6.93;;;5.57;;
26486;SDS011;14425;56.136;40.360;2023-10-19T08:54:20;6.90;;;5.13;;
26486;SDS011;14425;56.136;40.360;2023-10-19T08:56:47;7.95;;;5.53;;
26486;SDS011;14425;56.136;40.360;2023-10-19T08:59:13;7.78;;;6.55;;
26486;SDS011;14425;56.136;40.360;2023-10-19T09:01:42;7.75;;;5.97;;
26486;SDS011;14425;56.136;40.360;2023-10-19T09:04:11;6.90;;;6.15;;
26486;SDS011;14425;56.136;40.360;2023-10-19T09:06:38;6.40;;;5.25;;
26486;SDS011;14425;56.136;40.360;2023-10-19T09:09:07;5.30;;;4.80;;
26486;SDS011;14425;56.136;40.360;2023-10-19T09:11:34;6.22;;;4.53;;
26486;SDS011;14425;56.136;40.360;2023-10-19T09:14:00;6.82;;;5.32;;
26486;SDS011;14425;56.136;40.360;2023-10-19T09:16:29;7.22;;;5.43;;
26486;SDS011;14425;56.136;40.360;2023-10-19T09:18:56;4.75;;;4.15;;
26486;SDS011;14425;56.136;40.360;2023-10-19T09:21:22;5.72;;;4.65;;
26486;SDS011;14425;56.136;40.360;2023-10-19T09:23:52;7.80;;;4.80;;
26486;SDS011;14425;56.136;40.360;2023-10-19T09:26:20;5.25;;;4.75;;
26486;SDS011;14425;56.136;40.360;2023-10-19T09:28:48;7.85;;;5.35;;
26486;SDS011;14425;56.136;40.360;2023-10-19T09:31:16;4.65;;;4.13;;
26486;SDS011;14425;56.136;40.360;2023-10-19T09:33:44;4.72;;;3.78;;
26486;SDS011;14425;56.136;40.360;2023-10-19T09:36:11;5.38;;;3.22;;
26486;SDS011;14425;56.136;40.360;2023-10-19T09:38:48;4.53;;;3.33;;
26486;SDS011;14425;56.136;40.360;2023-10-19T09:41:22;4.38;;;3.65;;
26486;SDS011;14425;56.136;40.360;2023-10-19T09:46:31;4.05;;;2.70;;
26486;SDS011;14425;56.136;40.360;2023-10-19T09:48:57;3.65;;;2.65;;
26486;SDS011;14425;56.136;40.360;2023-10-19T09:51:23;5.15;;;2.75;;
26486;SDS011;14425;56.136;40.360;2023-10-19T09:53:59;3.38;;;2.90;;
26486;SDS011;14425;56.136;40.360;2023-10-19T09:56:38;3.67;;;3.35;;
26486;SDS011;14425;56.136;40.360;2023-10-19T09:59:33;5.55;;;3.05;;
26486;SDS011;14425;56.136;40.360;2023-10-19T10:02:13;3.83;;;3.35;;
26486;SDS011;14425;56.136;40.360;2023-10-19T10:04:40;3.25;;;2.85;;
26486;SDS011;14425;56.136;40.360;2023-10-19T10:07:08;4.43;;;2.70;;
26486;SDS011;14425;56.136;40.360;2023-10-19T10:09:35;3.10;;;2.80;;
26486;SDS011;14425;56.136;40.360;2023-10-19T10:12:17;3.90;;;3.50;;
26486;SDS011;14425;56.136;40.360;2023-10-19T10:14:58;4.65;;;3.25;;
26486;SDS011;14425;56.136;40.360;2023-10-19T10:17:36;3.50;;;3.08;;
26486;SDS011;14425;56.136;40.360;2023-10-19T10:22:41;4.25;;;3.00;;
26486;SDS011;14425;56.136;40.360;2023-10-19T10:25:07;5.13;;;3.63;;
26486;SDS011;14425;56.136;40.360;2023-10-19T10:27:35;6.63;;;4.43;;
26486;SDS011;14425;56.136;40.360;2023-10-19T10:30:02;10.73;;;6.20;;
26486;SDS011;14425;56.136;40.360;2023-10-19T10:38:04;3.22;;;2.47;;
26486;SDS011;14425;56.136;40.360;2023-10-19T10:40:41;2.88;;;2.03;;
26486;SDS011;14425;56.136;40.360;2023-10-19T10:43:11;4.93;;;3.30;;
26486;SDS011;14425;56.136;40.360;2023-10-19T10:45:37;4.03;;;2.92;;
26486;SDS011;14425;56.136;40.360;2023-10-19T10:48:11;2.30;;;2.10;;
26486;SDS011;14425;56.136;40.360;2023-10-19T10:50:37;6.95;;;2.55;;
26486;SDS011;14425;56.136;40.360;2023-10-19T10:53:05;3.10;;;2.20;;
26486;SDS011;14425;56.136;40.360;2023-10-19T10:55:30;5.10;;;2.67;;
26486;SDS011;14425;56.136;40.360;2023-10-19T10:57:57;2.63;;;2.08;;
26486;SDS011;14425;56.136;40.360;2023-10-19T11:00:23;2.83;;;2.00;;
26486;SDS011;14425;56.136;40.360;2023-10-19T11:03:03;3.40;;;1.95;;
26486;SDS011;14425;56.136;40.360;2023-10-19T11:05:35;3.50;;;2.35;;
26486;SDS011;14425;56.136;40.360;2023-10-19T11:10:32;3.47;;;2.03;;
26486;SDS011;14425;56.136;40.360;2023-10-19T11:13:11;2.00;;;1.83;;
26486;SDS011;14425;56.136;40.360;2023-10-19T11:15:39;1.85;;;1.73;;
26486;SDS011;14425;56.136;40.360;2023-10-19T11:18:27;1.98;;;1.85;;
26486;SDS011;14425;56.136;40.360;2023-10-19T11:20:58;2.13;;;1.50;;
26486;SDS011;14425;56.136;40.360;2023-10-19T11:23:39;2.40;;;1.67;;
26486;SDS011;14425;56.136;40.360;2023-10-19T11:26:06;2.95;;;1.77;;
26486;SDS011;14425;56.136;40.360;2023-10-19T11:28:33;1.55;;;1.45;;
26486;SDS011;14425;56.136;40.360;2023-10-19T11:31:15;1.80;;;1.70;;
26486;SDS011;14425;56.136;40.360;2023-10-19T11:33:47;1.77;;;1.63;;
26486;SDS011;14425;56.136;40.360;2023-10-19T11:36:14;3.38;;;1.70;;
26486;SDS011;14425;56.136;40.360;2023-10-19T11:38:53;2.53;;;2.00;;
26486;SDS011;14425;56.136;40.360;2023-10-19T11:41:19;2.85;;;2.15;;
26486;SDS011;14425;56.136;40.360;2023-10-19T11:43:46;3.13;;;2.42;;
26486;SDS011;14425;56.136;40.360;2023-10-19T11:46:13;2.05;;;1.77;;
26486;SDS011;14425;56.136;40.360;2023-10-19T11:48:40;3.67;;;2.13;;
26486;SDS011;14425;56.136;40.360;2023-10-19T11:51:08;2.97;;;1.70;;
26486;SDS011;14425;56.136;40.360;2023-10-19T11:53:37;2.20;;;2.00;;
26486;SDS011;14425;56.136;40.360;2023-10-19T11:56:07;2.42;;;2.22;;
26486;SDS011;14425;56.136;40.360;2023-10-19T11:58:35;1.70;;;1.60;;
26486;SDS011;14425;56.136;40.360;2023-10-19T12:01:03;2.10;;;1.90;;
26486;SDS011;14425;56.136;40.360;2023-10-19T12:03:36;1.23;;;1.13;;
26486;SDS011;14425;56.136;40.360;2023-10-19T12:06:08;1.65;;;1.50;;
26486;SDS011;14425;56.136;40.360;2023-10-19T12:08:36;1.58;;;1.48;;
26486;SDS011;14425;56.136;40.360;2023-10-19T12:11:03;4.93;;;1.63;;
26486;SDS011;14425;56.136;40.360;2023-10-19T12:13:30;2.00;;;1.80;;
26486;SDS011;14425;56.136;40.360;2023-10-19T12:15:57;3.47;;;2.00;;
26486;SDS011;14425;56.136;40.360;2023-10-19T12:18:26;3.38;;;2.40;;
26486;SDS011;14425;56.136;40.360;2023-10-19T12:20:53;2.17;;;1.75;;
26486;SDS011;14425;56.136;40.360;2023-10-19T12:23:24;7.50;;;2.53;;
26486;SDS011;14425;56.136;40.360;2023-10-19T12:25:51;12.20;;;3.22;;
26486;SDS011;14425;56.136;40.360;2023-10-19T12:28:19;3.95;;;3.15;;
26486;SDS011;14425;56.136;40.360;2023-10-19T12:30:45;3.65;;;2.85;;
26486;SDS011;14425;56.136;40.360;2023-10-19T12:33:14;2.90;;;2.70;;
26486;SDS011;14425;56.136;40.360;2023-10-19T12:35:40;6.93;;;2.97;;
26486;SDS011;14425;56.136;40.360;2023-10-19T12:38:17;3.05;;;2.75;;
26486;SDS011;14425;56.136;40.360;2023-10-19T12:40:46;3.55;;;3.05;;
26486;SDS011;14425;56.136;40.360;2023-10-19T12:43:13;3.33;;;3.00;;
26486;SDS011;14425;56.136;40.360;2023-10-19T12:45:40;4.45;;;2.88;;
26486;SDS011;14425;56.136;40.360;2023-10-19T12:48:07;4.82;;;3.22;;
26486;SDS011;14425;56.136;40.360;2023-10-19T12:50:36;3.70;;;3.30;;
26486;SDS011;14425;56.136;40.360;2023-10-19T12:53:03;6.15;;;2.85;;
26486;SDS011;14425;56.136;40.360;2023-10-19T12:55:29;4.43;;;2.80;;
26486;SDS011;14425;56.136;40.360;2023-10-19T12:57:56;3.97;;;3.30;;
26486;SDS011;14425;56.136;40.360;2023-10-19T13:00:23;3.33;;;2.83;;
26486;SDS011;14425;56.136;40.360;2023-10-19T13:02:50;4.07;;;3.03;;
26486;SDS011;14425;56.136;40.360;2023-10-19T13:05:16;3.25;;;2.65;;
26486;SDS011;14425;56.136;40.360;2023-10-19T13:07:44;3.72;;;2.80;;
26486;SDS011;14425;56.136;40.360;2023-10-19T13:10:10;4.75;;;3.08;;
26486;SDS011;14425;56.136;40.360;2023-10-19T13:12:38;2.25;;;2.05;;
26486;SDS011;14425;56.136;40.360;2023-10-19T13:15:04;3.42;;;2.83;;
26486;SDS011;14425;56.136;40.360;2023-10-19T13:17:41;3.95;;;3.30;;
26486;SDS011;14425;56.136;40.360;2023-10-19T13:20:08;3.97;;;3.47;;
26486;SDS011;14425;56.136;40.360;2023-10-19T13:22:44;4.32;;;3.45;;
26486;SDS011;14425;56.136;40.360;2023-10-19T13:25:11;6.20;;;2.67;;
26486;SDS011;14425;56.136;40.360;2023-10-19T13:27:44;7.00;;;2.45;;
26486;SDS011;14425;56.136;40.360;2023-10-19T13:30:11;4.65;;;2.78;;
26486;SDS011;14425;56.136;40.360;2023-10-19T13:32:39;6.15;;;2.75;;
26486;SDS011;14425;56.136;40.360;2023-10-19T13:35:07;3.60;;;2.80;;
26486;SDS011;14425;56.136;40.360;2023-10-19T13:37:34;5.43;;;2.85;;
26486;SDS011;14425;56.136;40.360;2023-10-19T13:40:02;7.05;;;2.78;;
26486;SDS011;14425;56.136;40.360;2023-10-19T13:45:56;5.43;;;2.42;;
26486;SDS011;14425;56.136;40.360;2023-10-19T13:48:22;5.70;;;3.10;;
26486;SDS011;14425;56.136;40.360;2023-10-19T13:50:48;4.90;;;3.05;;
26486;SDS011;14425;56.136;40.360;2023-10-19T13:53:17;3.28;;;2.47;;
26486;SDS011;14425;56.136;40.360;2023-10-19T13:55:43;3.80;;;2.72;;
26486;SDS011;14425;56.136;40.360;2023-10-19T13:58:11;5.63;;;3.20;;
26486;SDS011;14425;56.136;40.360;2023-10-19T14:00:40;3.50;;;3.20;;
26486;SDS011;14425;56.136;40.360;2023-10-19T14:03:09;3.47;;;2.65;;
26486;SDS011;14425;56.136;40.360;2023-10-19T14:05:36;2.63;;;2.42;;
26486;SDS011;14425;56.136;40.360;2023-10-19T14:08:04;2.38;;;2.17;;
26486;SDS011;14425;56.136;40.360;2023-10-19T14:10:31;9.82;;;5.72;;
26486;SDS011;14425;56.136;40.360;2023-10-19T14:12:57;3.15;;;2.40;;
26486;SDS011;14425;56.136;40.360;2023-10-19T14:15:23;2.85;;;2.65;;
26486;SDS011;14425;56.136;40.360;2023-10-19T14:17:51;7.50;;;3.95;;
26486;SDS011;14425;56.136;40.360;2023-10-19T14:20:17;5.40;;;3.50;;
26486;SDS011;14425;56.136;40.360;2023-10-19T14:22:48;5.18;;;3.60;;
26486;SDS011;14425;56.136;40.360;2023-10-19T14:25:15;3.95;;;3.55;;
26486;SDS011;14425;56.136;40.360;2023-10-19T14:27:42;5.57;;;3.58;;
26486;SDS011;14425;56.136;40.360;2023-10-19T14:30:21;3.47;;;2.97;;
26486;SDS011;14425;56.136;40.360;2023-10-19T14:32:48;9.13;;;3.60;;
26486;SDS011;14425;56.136;40.360;2023-10-19T14:35:16;4.25;;;3.13;;
26486;SDS011;14425;56.136;40.360;2023-10-19T14:37:46;3.92;;;3.45;;
26486;SDS011;14425;56.136;40.360;2023-10-19T14:40:16;5.28;;;3.42;;
26486;SDS011;14425;56.136;40.360;2023-10-19T14:45:12;4.75;;;3.90;;
26486;SDS011;14425;56.136;40.360;2023-10-19T14:47:42;3.72;;;3.00;;
26486;SDS011;14425;56.136;40.360;2023-10-19T14:50:12;3.45;;;3.10;;
26486;SDS011;14425;56.136;40.360;2023-10-19T14:52:42;4.25;;;3.85;;
26486;SDS011;14425;56.136;40.360;2023-10-19T14:55:09;4.60;;;4.03;;
26486;SDS011;14425;56.136;40.360;2023-10-19T14:57:36;4.45;;;3.05;;
26486;SDS011;14425;56.136;40.360;2023-10-19T15:00:04;6.90;;;4.32;;
26486;SDS011;14425;56.136;40.360;2023-10-19T15:02:56;7.68;;;4.68;;
26486;SDS011;14425;56.136;40.360;2023-10-19T15:05:23;4.60;;;3.33;;